Time;durP1;ratioP1;P1;durP2;ratioP2;P2;SDS_P1;SDS_P2;PMS_P1;PMS_P2;Temp;Humidity;BMP_temperature;BMP_pressure;BME280_temperature;BME280_humidity;BME280_pressure;Samples;Min_cycle;Max_cycle;Signal;HPM_P1;HPM_P2
2023/01/22 00:00:33;;;;;;;45.33;24.20;;;0.30;99.90;;;;;;5072420;28;20178;-82
2023/01/22 00:02:59;;;;;;;50.77;25.17;;;0.30;99.90;;;;;;5048533;28;20245;-81
2023/01/22 00:05:25;;;;;;;43.63;24.40;;;0.40;99.90;;;;;;5055864;28;20189;-81
2023/01/22 00:07:50;;;;;;;46.50;25.47;;;0.40;99.90;;;;;;5057030;28;20284;-82
2023/01/22 00:10:17;;;;;;;49.80;24.70;;;0.50;99.90;;;;;;5055647;28;20178;-83
2023/01/22 00:12:43;;;;;;;47.93;25.70;;;0.40;99.90;;;;;;5056057;28;20685;-81
2023/01/22 00:15:08;;;;;;;41.93;20.73;;;0.30;99.90;;;;;;5072259;28;20170;-82
2023/01/22 00:17:34;;;;;;;38.70;21.27;;;0.30;99.90;;;;;;5071114;28;20281;-83
2023/01/22 00:20:00;;;;;;;46.07;25.57;;;0.50;99.90;;;;;;5038311;28;20166;-83
2023/01/22 00:22:25;;;;;;;46.80;23.43;;;0.40;99.90;;;;;;5039691;28;20552;-83
2023/01/22 00:24:51;;;;;;;38.93;22.00;;;0.40;99.90;;;;;;5020706;28;20182;-82
2023/01/22 00:27:17;;;;;;;50.80;25.63;;;0.50;99.90;;;;;;5036580;28;20201;-82
2023/01/22 00:29:43;;;;;;;42.30;25.23;;;0.40;99.90;;;;;;5037633;28;20173;-82
2023/01/22 00:32:09;;;;;;;46.93;25.07;;;0.50;99.90;;;;;;5037501;28;20207;-83
2023/01/22 00:34:34;;;;;;;45.93;25.33;;;0.50;99.90;;;;;;5037900;28;20245;-83
2023/01/22 00:37:00;;;;;;;47.47;25.70;;;0.50;99.90;;;;;;5036851;28;20193;-82
2023/01/22 00:39:26;;;;;;;45.87;24.20;;;0.50;99.90;;;;;;5053129;28;20209;-82
2023/01/22 00:41:53;;;;;;;45.27;25.33;;;0.50;99.90;;;;;;5053353;28;20189;-81
2023/01/22 00:44:18;;;;;;;44.10;23.53;;;0.60;99.90;;;;;;5036660;28;20186;-82
2023/01/22 00:46:44;;;;;;;53.30;27.83;;;0.60;99.90;;;;;;5036742;28;20177;-82
2023/01/22 00:49:11;;;;;;;44.73;22.80;;;0.50;99.90;;;;;;5051682;28;20185;-82
2023/01/22 00:51:38;;;;;;;39.83;21.57;;;0.60;99.90;;;;;;5034868;28;20170;-82
2023/01/22 00:54:04;;;;;;;38.37;22.03;;;0.30;99.90;;;;;;5035911;28;20194;-82
2023/01/22 00:56:29;;;;;;;40.60;21.87;;;0.30;99.90;;;;;;5034534;28;20173;-84
2023/01/22 00:58:56;;;;;;;49.43;27.17;;;0.20;99.90;;;;;;5035951;28;20174;-82
2023/01/22 01:01:21;;;;;;;42.63;22.43;;;0.30;99.90;;;;;;5034847;28;20169;-82
2023/01/22 01:03:47;;;;;;;49.67;25.13;;;0.30;99.90;;;;;;5034846;28;20253;-82
2023/01/22 01:06:18;;;;;;;37.77;18.67;;;0.40;99.90;;;;;;5036866;28;20622;-82
2023/01/22 01:08:44;;;;;;;36.70;18.80;;;0.40;99.90;;;;;;5034683;28;20220;-81
2023/01/22 01:11:13;;;;;;;36.37;18.70;;;0.50;99.90;;;;;;5050710;28;20173;-81
2023/01/22 01:13:42;;;;;;;37.63;19.77;;;0.20;99.90;;;;;;5034976;28;20166;-82
2023/01/22 01:16:12;;;;;;;36.67;19.83;;;0.20;99.90;;;;;;5035375;28;20173;-81
2023/01/22 01:18:39;;;;;;;50.77;24.97;;;0.20;99.90;;;;;;5037029;28;20247;-81
2023/01/22 01:21:06;;;;;;;45.73;24.07;;;0.20;99.90;;;;;;5036480;28;20180;-84
2023/01/22 01:23:32;;;;;;;49.03;26.43;;;0.30;99.90;;;;;;5040019;28;20165;-82
2023/01/22 01:25:58;;;;;;;47.60;25.63;;;0.30;99.90;;;;;;5044514;28;20231;-84
2023/01/22 01:28:24;;;;;;;47.60;24.40;;;0.30;99.90;;;;;;5049570;28;20244;-81
2023/01/22 01:30:49;;;;;;;48.13;24.70;;;0.30;99.90;;;;;;5046436;28;20177;-82
2023/01/22 01:33:15;;;;;;;43.07;23.83;;;0.30;99.90;;;;;;5045641;28;20174;-80
2023/01/22 01:35:41;;;;;;;41.00;22.83;;;0.20;99.90;;;;;;5045500;28;20174;-82
2023/01/22 01:38:07;;;;;;;41.50;21.93;;;0.20;99.90;;;;;;5057990;28;20296;-81
2023/01/22 01:40:34;;;;;;;43.07;23.50;;;0.30;99.90;;;;;;5038276;28;20736;-82
2023/01/22 01:43:00;;;;;;;45.13;22.87;;;0.20;99.90;;;;;;5035801;28;20658;-82
2023/01/22 01:45:30;;;;;;;41.57;22.73;;;0.20;99.90;;;;;;5039869;28;20205;-82
2023/01/22 01:48:24;;;;;;;44.70;22.40;;;0.20;99.90;;;;;;5036312;28;20170;-82
2023/01/22 01:51:05;;;;;;;49.70;24.67;;;0.20;99.90;;;;;;5034120;28;20177;-86
2023/01/22 01:53:32;;;;;;;43.03;22.73;;;0.30;99.90;;;;;;5034127;28;20200;-85
2023/01/22 01:55:59;;;;;;;36.50;17.97;;;0.30;99.90;;;;;;5049599;28;20197;-83
2023/01/22 01:58:30;;;;;;;41.37;21.67;;;0.20;99.90;;;;;;5033223;28;20209;-81
2023/01/22 02:01:01;;;;;;;49.47;24.07;;;0.10;99.90;;;;;;5033047;28;20170;-80
2023/01/22 02:03:28;;;;;;;41.50;22.83;;;0.30;99.90;;;;;;5032419;28;20177;-83
2023/01/22 02:05:53;;;;;;;44.50;24.60;;;0.30;99.90;;;;;;5032679;28;20170;-83
2023/01/22 02:08:19;;;;;;;37.43;21.90;;;0.30;99.90;;;;;;5049071;28;20551;-81
2023/01/22 02:10:44;;;;;;;42.20;23.30;;;0.20;99.90;;;;;;5034007;28;20528;-83
2023/01/22 02:13:15;;;;;;;42.70;23.80;;;0.20;99.90;;;;;;5032891;28;20182;-82
2023/01/22 02:15:41;;;;;;;28.67;17.30;;;0.20;99.90;;;;;;5032498;28;20169;-81
2023/01/22 02:18:07;;;;;;;39.23;21.97;;;0.10;99.90;;;;;;5034104;28;20300;-82
2023/01/22 02:20:37;;;;;;;45.57;23.03;;;0.10;99.90;;;;;;5032914;28;20205;-82
2023/01/22 02:23:04;;;;;;;44.53;22.50;;;0.10;99.90;;;;;;5033594;28;20660;-82
2023/01/22 02:25:30;;;;;;;41.97;23.23;;;0.30;99.90;;;;;;5032997;28;20533;-82
2023/01/22 02:27:56;;;;;;;44.13;22.70;;;0.20;99.90;;;;;;5049760;28;20165;-80
2023/01/22 02:30:22;;;;;;;45.87;25.57;;;0.40;99.90;;;;;;5033028;28;20170;-81
2023/01/22 02:32:47;;;;;;;42.10;23.43;;;0.20;99.90;;;;;;5032963;28;20178;-81
2023/01/22 02:35:13;;;;;;;39.47;23.03;;;0.30;99.90;;;;;;5032920;28;20257;-82
2023/01/22 02:37:39;;;;;;;44.60;25.73;;;0.40;99.90;;;;;;5033446;28;20209;-82
2023/01/22 02:40:05;;;;;;;42.80;24.70;;;0.30;99.90;;;;;;5032158;28;20199;-85
2023/01/22 02:42:30;;;;;;;42.43;23.93;;;0.30;99.90;;;;;;5032548;28;20594;-82
2023/01/22 02:44:56;;;;;;;46.87;26.97;;;0.40;99.90;;;;;;5032397;28;20231;-81
2023/01/22 02:47:22;;;;;;;48.77;27.27;;;0.40;99.90;;;;;;5034179;28;20634;-82
2023/01/22 02:49:47;;;;;;;46.47;25.23;;;0.40;99.90;;;;;;5032207;28;20176;-82
2023/01/22 02:52:13;;;;;;;45.57;25.13;;;0.40;99.90;;;;;;5048891;28;20170;-82
2023/01/22 02:54:39;;;;;;;47.77;24.50;;;0.60;99.90;;;;;;5032323;28;20193;-82
2023/01/22 02:57:04;;;;;;;48.97;26.10;;;0.40;99.90;;;;;;5032410;28;20676;-81
2023/01/22 02:59:30;;;;;;;47.57;26.87;;;0.50;99.90;;;;;;5048842;28;20261;-80
2023/01/22 03:01:56;;;;;;;52.93;27.17;;;0.60;99.90;;;;;;5048762;28;20180;-81
2023/01/22 03:04:22;;;;;;;44.83;24.20;;;0.60;99.90;;;;;;5032640;28;20176;-80
2023/01/22 03:06:48;;;;;;;46.27;25.10;;;0.70;99.90;;;;;;5048623;28;20231;-82
2023/01/22 03:09:16;;;;;;;48.67;24.60;;;0.70;99.90;;;;;;5032328;28;20255;-82
2023/01/22 03:11:44;;;;;;;48.63;25.00;;;0.70;99.90;;;;;;5031818;28;20185;-83
2023/01/22 03:22:23;;;;;;;45.97;23.73;;;0.70;99.90;;;;;;5037546;28;20715;-82
2023/01/22 03:24:52;;;;;;;40.20;20.10;;;0.50;99.90;;;;;;5052289;28;20201;-82
2023/01/22 03:27:23;;;;;;;44.70;24.83;;;0.70;99.90;;;;;;5036892;28;20720;-82
2023/01/22 03:29:49;;;;;;;40.93;22.67;;;0.60;99.90;;;;;;5035409;28;20232;-81
2023/01/22 03:32:15;;;;;;;44.37;24.13;;;0.80;99.90;;;;;;5035350;28;20177;-82
2023/01/22 03:34:41;;;;;;;42.97;22.97;;;0.80;99.90;;;;;;5036516;28;20165;-82
2023/01/22 03:37:13;;;;;;;45.10;26.20;;;0.80;99.90;;;;;;5035368;28;20565;-83
2023/01/22 03:39:39;;;;;;;43.40;22.93;;;0.90;99.90;;;;;;5035443;28;20204;-82
2023/01/22 03:42:05;;;;;;;42.40;25.47;;;0.90;99.90;;;;;;5034985;28;20212;-82
2023/01/22 03:44:31;;;;;;;48.03;25.13;;;0.90;99.90;;;;;;5036621;28;20181;-81
2023/01/22 03:46:57;;;;;;;47.07;27.00;;;0.90;99.90;;;;;;5036006;28;20174;-82
2023/01/22 03:49:24;;;;;;;49.53;27.70;;;1.00;99.90;;;;;;5035207;28;20205;-82
2023/01/22 03:51:50;;;;;;;51.83;26.43;;;1.00;99.90;;;;;;5051891;28;20284;-81
2023/01/22 03:54:15;;;;;;;43.00;24.30;;;1.00;99.90;;;;;;5037663;28;20607;-81
2023/01/22 03:56:42;;;;;;;46.43;24.30;;;1.00;99.90;;;;;;5035477;28;20654;-82
2023/01/22 03:59:09;;;;;;;39.97;23.63;;;0.90;99.90;;;;;;5035144;28;20198;-82
2023/01/22 04:01:36;;;;;;;41.87;26.00;;;0.90;99.90;;;;;;5034749;28;20618;-82
2023/01/22 04:04:02;;;;;;;45.13;24.90;;;1.10;99.90;;;;;;5034792;28;20184;-81
2023/01/22 04:06:29;;;;;;;45.80;25.67;;;1.00;99.90;;;;;;5034823;28;20178;-82
2023/01/22 04:08:55;;;;;;;43.00;23.13;;;1.10;99.90;;;;;;5036286;28;20208;-81
2023/01/22 04:11:21;;;;;;;41.90;24.57;;;1.10;99.90;;;;;;5034515;28;20181;-81
2023/01/22 04:13:47;;;;;;;41.37;23.63;;;1.10;99.90;;;;;;5034576;28;20178;-81
2023/01/22 04:16:13;;;;;;;46.23;26.43;;;1.20;99.90;;;;;;5051339;28;20252;-82
2023/01/22 04:18:40;;;;;;;40.50;24.53;;;1.10;99.90;;;;;;5034730;28;20271;-81
2023/01/22 04:21:06;;;;;;;40.93;24.23;;;1.10;99.90;;;;;;5034689;28;20216;-82
2023/01/22 04:23:32;;;;;;;43.27;24.20;;;1.20;99.90;;;;;;5034943;28;20181;-85
2023/01/22 04:25:58;;;;;;;43.07;25.80;;;1.10;99.90;;;;;;5034503;28;20540;-82
2023/01/22 04:28:24;;;;;;;45.30;26.33;;;1.10;99.90;;;;;;5034688;28;20277;-81
2023/01/22 04:30:52;;;;;;;40.93;23.70;;;1.10;99.90;;;;;;5034691;28;20227;-81
2023/01/22 04:33:17;;;;;;;44.87;26.07;;;1.10;99.90;;;;;;5033903;28;20185;-81
2023/01/22 04:35:43;;;;;;;42.83;24.33;;;1.00;99.90;;;;;;5034567;28;20204;-81
2023/01/22 04:38:12;;;;;;;43.17;24.33;;;1.10;99.90;;;;;;5034113;28;20313;-83
2023/01/22 04:40:38;;;;;;;45.57;25.07;;;1.20;99.90;;;;;;5034263;28;20177;-82
2023/01/22 04:43:06;;;;;;;43.90;25.13;;;1.20;99.90;;;;;;5034409;28;20220;-82
2023/01/22 04:45:33;;;;;;;42.93;25.07;;;1.20;99.90;;;;;;5034473;28;20528;-81
2023/01/22 04:47:59;;;;;;;47.87;27.20;;;1.20;99.90;;;;;;5033818;28;20181;-82
2023/01/22 04:50:28;;;;;;;47.50;27.17;;;1.20;99.90;;;;;;5034089;28;20663;-82
2023/01/22 04:52:55;;;;;;;49.20;24.90;;;1.50;99.90;;;;;;5034228;28;20185;-82
2023/01/22 04:55:22;;;;;;;43.00;25.83;;;1.30;99.90;;;;;;5034173;28;20641;-83
2023/01/22 04:57:48;;;;;;;43.40;26.07;;;1.40;99.90;;;;;;5050393;28;20228;-81
2023/01/22 05:00:15;;;;;;;45.20;26.27;;;1.40;99.90;;;;;;5033801;28;20630;-82
2023/01/22 05:02:40;;;;;;;42.57;24.13;;;1.30;99.90;;;;;;5033448;28;20182;-82
2023/01/22 05:05:07;;;;;;;43.03;25.87;;;1.30;99.90;;;;;;5050257;28;20685;-83
2023/01/22 05:07:34;;;;;;;41.47;23.83;;;1.40;99.90;;;;;;5035049;28;20197;-82
2023/01/22 05:09:59;;;;;;;37.93;23.50;;;1.40;99.90;;;;;;5034121;28;20173;-83
2023/01/22 05:12:25;;;;;;;37.67;23.00;;;1.30;99.90;;;;;;5033985;28;20221;-82
2023/01/22 05:14:50;;;;;;;39.33;23.17;;;1.30;99.90;;;;;;5050195;28;20174;-83
2023/01/22 05:17:17;;;;;;;36.80;22.60;;;1.30;99.90;;;;;;5035112;28;20213;-82
2023/01/22 05:19:44;;;;;;;37.87;23.37;;;1.30;99.90;;;;;;5033886;28;20174;-82
2023/01/22 05:22:09;;;;;;;35.27;23.17;;;1.30;99.90;;;;;;5033643;28;20653;-82
2023/01/22 05:24:35;;;;;;;33.97;20.97;;;1.30;99.90;;;;;;5049768;28;20165;-81
2023/01/22 05:27:00;;;;;;;39.20;20.67;;;1.30;99.90;;;;;;5033605;28;20566;-82
2023/01/22 05:29:26;;;;;;;39.07;22.23;;;1.30;99.90;;;;;;5033142;28;20192;-82
2023/01/22 05:31:54;;;;;;;33.43;21.13;;;1.30;99.90;;;;;;5033180;28;20304;-81
2023/01/22 05:34:20;;;;;;;33.10;20.33;;;1.30;99.90;;;;;;5033349;28;20173;-81
2023/01/22 05:36:46;;;;;;;36.53;23.30;;;1.40;99.90;;;;;;5041656;28;20201;-81
2023/01/22 05:39:12;;;;;;;32.87;19.47;;;1.30;99.90;;;;;;5043975;28;20187;-84
2023/01/22 05:41:38;;;;;;;37.13;21.63;;;1.30;99.90;;;;;;5045588;28;20725;-82
2023/01/22 05:44:04;;;;;;;32.60;19.13;;;1.30;99.90;;;;;;5045370;28;20264;-81
2023/01/22 05:46:30;;;;;;;35.60;21.17;;;1.30;99.90;;;;;;5036913;28;20224;-81
2023/01/22 05:48:57;;;;;;;32.97;19.07;;;1.40;99.90;;;;;;5034040;28;20207;-81
2023/01/22 05:51:24;;;;;;;35.00;20.20;;;1.50;99.90;;;;;;5034941;28;20177;-82
2023/01/22 05:53:50;;;;;;;30.87;20.03;;;1.30;99.90;;;;;;5033066;28;20241;-82
2023/01/22 05:56:16;;;;;;;24.50;15.80;;;1.40;99.90;;;;;;5033383;28;20235;-82
2023/01/22 05:58:42;;;;;;;26.87;16.77;;;1.30;99.90;;;;;;5033304;28;20299;-81
2023/01/22 06:01:09;;;;;;;28.40;17.90;;;1.30;99.90;;;;;;5033163;28;20208;-81
2023/01/22 06:03:35;;;;;;;24.97;17.10;;;1.40;99.90;;;;;;5034639;28;20174;-84
2023/01/22 06:06:06;;;;;;;29.40;19.27;;;1.40;99.90;;;;;;5033075;28;20315;-80
2023/01/22 06:08:34;;;;;;;25.63;17.23;;;1.40;99.90;;;;;;5049241;28;20543;-81
2023/01/22 06:11:07;;;;;;;30.10;18.03;;;1.40;99.90;;;;;;5032897;28;20177;-83
2023/01/22 06:13:34;;;;;;;27.47;17.37;;;1.40;99.90;;;;;;5032766;28;20539;-82
2023/01/22 06:15:59;;;;;;;25.23;17.90;;;1.30;99.90;;;;;;5032383;28;20172;-82
2023/01/22 06:18:26;;;;;;;25.37;16.43;;;1.30;99.90;;;;;;5032651;28;20209;-82
2023/01/22 06:20:51;;;;;;;28.70;18.33;;;1.30;99.90;;;;;;5049187;28;20173;-82
2023/01/22 06:23:17;;;;;;;25.90;17.13;;;1.30;99.90;;;;;;5039001;28;20550;-81
2023/01/22 06:25:51;;;;;;;28.30;18.43;;;1.40;99.90;;;;;;5047760;28;20170;-80
2023/01/22 06:28:17;;;;;;;25.00;16.43;;;1.30;99.90;;;;;;5046996;28;20173;-80
2023/01/22 06:30:43;;;;;;;25.57;16.47;;;1.30;99.90;;;;;;5042378;28;20160;-80
2023/01/22 06:33:09;;;;;;;25.27;17.50;;;1.30;99.90;;;;;;5036428;28;20178;-82
2023/01/22 06:35:34;;;;;;;26.77;17.57;;;1.40;99.90;;;;;;5054315;28;20632;-80
2023/01/22 06:38:00;;;;;;;25.40;17.77;;;1.40;99.90;;;;;;5055107;28;20209;-81
2023/01/22 06:40:26;;;;;;;24.57;16.90;;;1.30;99.90;;;;;;5037239;28;20176;-82
2023/01/22 06:42:52;;;;;;;26.63;18.77;;;1.30;99.90;;;;;;5032235;28;20186;-82
2023/01/22 06:45:17;;;;;;;25.60;16.63;;;1.30;99.90;;;;;;5033918;28;20181;-83
2023/01/22 06:47:44;;;;;;;24.17;17.27;;;1.30;99.90;;;;;;5032399;28;20204;-82
2023/01/22 06:50:12;;;;;;;25.30;18.07;;;1.30;99.90;;;;;;5034338;28;20625;-82
2023/01/22 06:52:38;;;;;;;27.73;19.07;;;1.30;99.90;;;;;;5037244;28;20641;-82
2023/01/22 06:55:04;;;;;;;26.03;17.97;;;1.20;99.90;;;;;;5037519;28;20197;-82
2023/01/22 06:57:30;;;;;;;27.13;17.50;;;1.20;99.90;;;;;;5036427;28;20209;-82
2023/01/22 06:59:56;;;;;;;25.37;17.57;;;1.20;99.90;;;;;;5036737;28;20251;-82
2023/01/22 07:02:24;;;;;;;24.00;16.33;;;1.30;99.90;;;;;;5036655;28;20169;-82
2023/01/22 07:04:57;;;;;;;25.57;17.27;;;1.20;99.90;;;;;;5036483;28;20170;-82
2023/01/22 07:07:23;;;;;;;25.07;18.03;;;1.10;99.90;;;;;;5036943;28;20351;-81
2023/01/22 07:09:49;;;;;;;24.07;16.77;;;1.20;99.90;;;;;;5037687;28;20205;-81
2023/01/22 07:12:19;;;;;;;24.43;16.53;;;1.10;99.90;;;;;;5045107;28;20201;-82
2023/01/22 07:14:47;;;;;;;22.00;15.93;;;1.20;99.90;;;;;;5043927;28;20515;-82
2023/01/22 07:17:13;;;;;;;25.43;18.20;;;1.00;99.90;;;;;;5043753;28;20220;-81
2023/01/22 07:19:39;;;;;;;24.33;16.97;;;1.00;99.90;;;;;;5059357;28;20189;-81
2023/01/22 07:22:04;;;;;;;22.10;16.60;;;1.10;99.90;;;;;;5061473;28;20174;-82
2023/01/22 07:24:31;;;;;;;25.10;17.60;;;1.10;99.90;;;;;;5061601;28;20173;-83
2023/01/22 07:26:57;;;;;;;23.37;16.80;;;1.20;99.90;;;;;;5061194;28;20174;-82
2023/01/22 07:29:23;;;;;;;23.13;16.30;;;1.10;99.90;;;;;;5077790;28;20169;-82
2023/01/22 07:31:49;;;;;;;21.70;15.53;;;1.10;99.90;;;;;;5061122;28;20192;-80
2023/01/22 07:34:15;;;;;;;24.53;17.57;;;1.00;99.90;;;;;;5070108;28;20165;-82
2023/01/22 07:36:40;;;;;;;23.13;12.83;;;1.00;99.90;;;;;;5058487;28;20185;-83
2023/01/22 07:39:06;;;;;;;74.67;16.87;;;1.10;99.90;;;;;;5072810;28;20204;-80
2023/01/22 07:41:32;;;;;;;24.73;18.37;;;1.00;99.90;;;;;;5038104;28;20182;-81
2023/01/22 07:43:59;;;;;;;25.20;17.57;;;1.00;99.90;;;;;;5049108;28;20185;-82
2023/01/22 07:46:25;;;;;;;24.13;18.07;;;1.00;99.90;;;;;;5060186;28;20162;-82
2023/01/22 07:48:51;;;;;;;28.27;18.70;;;1.00;99.90;;;;;;5060051;28;20193;-83
2023/01/22 07:51:16;;;;;;;25.07;19.10;;;0.90;99.90;;;;;;5060114;28;20193;-81
2023/01/22 07:53:42;;;;;;;27.00;17.93;;;0.90;99.90;;;;;;5060153;28;20172;-81
2023/01/22 07:56:08;;;;;;;26.37;17.53;;;0.90;99.90;;;;;;5059367;28;20181;-83
2023/01/22 07:58:33;;;;;;;22.53;15.10;;;0.80;99.90;;;;;;5050802;28;20202;-82
2023/01/22 08:00:59;;;;;;;21.47;15.03;;;0.70;99.90;;;;;;5037453;28;20177;-81
2023/01/22 08:03:25;;;;;;;21.03;14.47;;;0.70;99.90;;;;;;5038307;28;20618;-82
2023/01/22 08:05:50;;;;;;;24.63;17.60;;;0.90;99.90;;;;;;5038498;28;20177;-82
2023/01/22 08:08:19;;;;;;;24.03;16.87;;;0.80;99.90;;;;;;5038062;28;20185;-82
2023/01/22 08:10:45;;;;;;;26.00;18.83;;;0.70;99.90;;;;;;5038787;28;20249;-82
2023/01/22 08:13:11;;;;;;;22.57;15.63;;;0.60;99.90;;;;;;5039960;28;20208;-85
2023/01/22 08:15:37;;;;;;;22.83;17.90;;;0.80;99.60;;;;;;5040655;28;20614;-83
2023/01/22 08:18:02;;;;;;;24.50;18.13;;;0.80;99.30;;;;;;5036926;28;20277;-82
2023/01/22 08:20:29;;;;;;;20.57;14.97;;;1.00;99.50;;;;;;5037013;28;20173;-83
2023/01/22 08:23:01;;;;;;;19.97;15.20;;;0.90;99.30;;;;;;5035569;28;20530;-83
2023/01/22 08:25:30;;;;;;;23.73;16.10;;;0.80;99.10;;;;;;5035378;28;20177;-83
2023/01/22 08:28:01;;;;;;;23.37;18.10;;;0.80;99.00;;;;;;5052169;28;20165;-82
2023/01/22 08:30:28;;;;;;;20.50;13.57;;;0.80;99.00;;;;;;5036062;28;20165;-82
2023/01/22 08:32:54;;;;;;;23.80;15.93;;;0.80;99.00;;;;;;5052198;28;20190;-82
2023/01/22 08:35:20;;;;;;;23.93;16.83;;;0.80;99.30;;;;;;5035807;28;20161;-83
2023/01/22 08:37:45;;;;;;;23.57;17.43;;;0.80;99.30;;;;;;5034791;28;20213;-82
2023/01/22 08:40:12;;;;;;;22.77;16.20;;;0.80;99.00;;;;;;5034399;28;20256;-83
2023/01/22 08:42:39;;;;;;;22.83;16.33;;;0.80;98.60;;;;;;5050989;28;20196;-83
2023/01/22 08:45:07;;;;;;;23.17;17.27;;;0.80;99.10;;;;;;5051678;28;20178;-81
2023/01/22 08:47:33;;;;;;;23.60;17.43;;;0.80;99.40;;;;;;5034245;28;20701;-82
2023/01/22 08:50:01;;;;;;;23.37;18.23;;;0.90;99.80;;;;;;5034459;28;20209;-82
2023/01/22 08:52:27;;;;;;;23.43;17.73;;;0.90;99.60;;;;;;5034090;28;20216;-82
2023/01/22 08:54:53;;;;;;;23.83;16.97;;;0.90;99.90;;;;;;5052220;28;20662;-83
2023/01/22 08:57:19;;;;;;;23.07;18.03;;;0.90;99.60;;;;;;5035830;28;20201;-84
2023/01/22 08:59:44;;;;;;;23.43;17.57;;;0.80;99.90;;;;;;5035551;28;20186;-83
2023/01/22 09:02:14;;;;;;;24.87;17.87;;;1.00;99.90;;;;;;5036010;28;20165;-82
2023/01/22 09:04:40;;;;;;;23.90;17.70;;;0.90;99.90;;;;;;5037239;28;20219;-82
2023/01/22 09:07:07;;;;;;;25.13;18.63;;;0.90;99.90;;;;;;5034904;28;20260;-83
2023/01/22 09:09:33;;;;;;;22.50;15.23;;;0.90;99.90;;;;;;5053305;28;20227;-83
2023/01/22 09:11:59;;;;;;;22.00;15.30;;;0.90;99.90;;;;;;5035718;28;20177;-84
2023/01/22 09:14:24;;;;;;;24.50;17.80;;;0.90;99.90;;;;;;5039926;28;20174;-84
2023/01/22 09:16:50;;;;;;;22.63;16.40;;;0.80;99.90;;;;;;5054318;28;20162;-82
2023/01/22 09:19:16;;;;;;;26.87;18.60;;;0.80;99.90;;;;;;5059039;28;20177;-82
2023/01/22 09:21:41;;;;;;;22.80;16.50;;;0.90;99.90;;;;;;5058109;28;20181;-81
2023/01/22 09:24:08;;;;;;;25.80;19.53;;;0.90;99.90;;;;;;5073832;28;20196;-82
2023/01/22 09:26:38;;;;;;;23.40;17.93;;;1.00;99.90;;;;;;5057189;28;20158;-82
2023/01/22 09:29:05;;;;;;;23.83;17.30;;;1.00;99.90;;;;;;5057186;28;20178;-82
2023/01/22 09:31:33;;;;;;;24.00;16.90;;;1.00;99.90;;;;;;5057982;28;20181;-85
2023/01/22 09:34:00;;;;;;;21.13;16.63;;;1.00;99.90;;;;;;5058861;28;20158;-83
2023/01/22 09:36:26;;;;;;;23.43;17.53;;;0.90;99.90;;;;;;5058141;28;20172;-81
2023/01/22 09:38:55;;;;;;;23.83;16.73;;;1.00;99.90;;;;;;5057676;28;20213;-85
2023/01/22 09:41:27;;;;;;;23.93;17.83;;;1.00;99.90;;;;;;5056071;28;20213;-82
2023/01/22 09:44:08;;;;;;;24.03;17.63;;;1.00;99.90;;;;;;5055462;28;20185;-83
2023/01/22 09:46:46;;;;;;;23.83;17.77;;;1.10;99.90;;;;;;5055047;28;20170;-83
2023/01/22 09:49:19;;;;;;;22.47;17.53;;;1.00;99.90;;;;;;5054907;28;20170;-83
2023/01/22 09:51:59;;;;;;;22.20;16.33;;;1.10;99.90;;;;;;5051577;28;20201;-86
2023/01/22 09:54:28;;;;;;;21.63;16.17;;;1.10;99.90;;;;;;5045596;28;20197;-86
2023/01/22 09:56:57;;;;;;;23.67;17.80;;;1.00;99.90;;;;;;5065167;28;20174;-84
2023/01/22 09:59:39;;;;;;;22.57;17.30;;;1.10;99.90;;;;;;5033784;28;20181;-86
2023/01/22 10:02:43;;;;;;;21.60;14.97;;;1.00;99.90;;;;;;5050690;28;20153;-84
2023/01/22 10:05:39;;;;;;;26.77;16.37;;;1.00;99.90;;;;;;5057318;28;20157;-81
2023/01/22 10:08:45;;;;;;;22.13;16.00;;;1.00;99.90;;;;;;5072886;28;20170;-83
2023/01/22 10:11:12;;;;;;;19.53;13.97;;;1.10;99.90;;;;;;5057073;28;20176;-81
2023/01/22 10:13:48;;;;;;;19.83;15.33;;;1.00;99.90;;;;;;5057289;28;20161;-82
2023/01/22 10:16:16;;;;;;;21.07;14.53;;;1.00;99.90;;;;;;5054543;28;20161;-82
2023/01/22 10:18:59;;;;;;;19.80;13.93;;;1.00;99.90;;;;;;5051262;28;20220;-82
2023/01/22 10:21:27;;;;;;;19.57;13.07;;;1.10;99.90;;;;;;5056065;28;20170;-83
2023/01/22 10:23:55;;;;;;;21.07;14.37;;;1.10;99.90;;;;;;5055166;28;20182;-83
2023/01/22 10:26:54;;;;;;;17.93;13.97;;;1.10;99.90;;;;;;5053339;28;20185;-84
2023/01/22 10:29:36;;;;;;;17.17;11.87;;;1.10;99.90;;;;;;5052689;28;20153;-83
2023/01/22 10:32:24;;;;;;;24.43;13.87;;;1.20;99.90;;;;;;5047947;28;20174;-81
2023/01/22 10:35:18;;;;;;;16.17;11.57;;;1.10;99.90;;;;;;5051644;28;20181;-81
2023/01/22 10:37:46;;;;;;;17.93;13.67;;;1.10;99.90;;;;;;5061075;28;20579;-83
2023/01/22 10:40:25;;;;;;;17.83;13.57;;;1.00;99.90;;;;;;5036758;28;20196;-85
2023/01/22 10:43:10;;;;;;;22.07;15.10;;;1.10;99.90;;;;;;5036712;28;20177;-82
2023/01/22 10:45:54;;;;;;;24.20;16.33;;;1.10;99.90;;;;;;5043222;28;20182;-80
2023/01/22 10:48:20;;;;;;;18.20;13.13;;;1.10;99.90;;;;;;5049151;28;20166;-84
2023/01/22 10:51:07;;;;;;;20.40;15.37;;;1.10;99.90;;;;;;5043967;28;20184;-82
2023/01/22 10:53:35;;;;;;;19.67;14.20;;;1.10;99.90;;;;;;5038783;28;20188;-83
2023/01/22 10:56:03;;;;;;;20.70;13.67;;;1.10;99.90;;;;;;5039469;28;20189;-83
2023/01/22 10:58:32;;;;;;;19.97;14.17;;;1.20;99.90;;;;;;5060538;28;20220;-82
2023/01/22 11:01:05;;;;;;;23.47;16.87;;;1.10;99.90;;;;;;5049275;28;20173;-83
2023/01/22 11:03:38;;;;;;;21.77;15.50;;;1.20;99.90;;;;;;5051384;28;20193;-84
2023/01/22 11:06:18;;;;;;;20.20;14.10;;;1.10;99.90;;;;;;5040620;28;20174;-84
2023/01/22 11:08:50;;;;;;;20.67;14.87;;;1.20;99.90;;;;;;5038323;28;20236;-84
2023/01/22 11:11:22;;;;;;;19.60;14.80;;;1.20;99.90;;;;;;5036106;28;20657;-85
2023/01/22 11:14:00;;;;;;;18.73;12.77;;;1.20;99.90;;;;;;5036717;28;20177;-84
2023/01/22 11:16:30;;;;;;;19.03;13.13;;;1.20;99.90;;;;;;5036506;28;20188;-84
2023/01/22 11:19:13;;;;;;;17.43;12.50;;;1.30;99.90;;;;;;5036443;28;20292;-82
2023/01/22 11:21:50;;;;;;;17.30;12.13;;;1.10;99.90;;;;;;5034741;28;20176;-83
2023/01/22 11:24:45;;;;;;;16.97;12.13;;;1.00;99.90;;;;;;5034133;28;20186;-82
2023/01/22 11:27:40;;;;;;;15.30;10.63;;;1.10;99.90;;;;;;5035946;28;20166;-83
2023/01/22 11:30:33;;;;;;;19.43;14.03;;;1.10;99.90;;;;;;5017907;28;20182;-82
2023/01/22 11:33:18;;;;;;;20.70;14.27;;;1.10;99.90;;;;;;5035077;28;20196;-82
2023/01/22 11:35:55;;;;;;;16.10;11.97;;;1.10;99.90;;;;;;5034081;28;20213;-83
2023/01/22 11:38:43;;;;;;;16.60;12.10;;;1.10;99.90;;;;;;5038283;28;20608;-82
2023/01/22 11:41:11;;;;;;;17.77;13.07;;;1.10;99.90;;;;;;5053781;28;20542;-83
2023/01/22 11:43:43;;;;;;;19.90;13.63;;;1.10;99.90;;;;;;5037744;28;20197;-86
2023/01/22 11:46:34;;;;;;;18.60;14.00;;;1.10;99.90;;;;;;5040419;28;20170;-84
2023/01/22 11:48:59;;;;;;;18.03;12.50;;;1.20;99.90;;;;;;5039192;28;20225;-85
2023/01/22 11:51:25;;;;;;;20.33;14.50;;;1.20;99.90;;;;;;5039493;28;20251;-85
2023/01/22 11:54:08;;;;;;;18.53;14.00;;;1.30;99.90;;;;;;5038643;28;20654;-85
2023/01/22 11:56:55;;;;;;;18.30;13.47;;;1.30;99.90;;;;;;5039625;28;20201;-84
2023/01/22 11:59:53;;;;;;;20.47;13.00;;;1.30;99.90;;;;;;5039022;28;20185;-84
2023/01/22 12:02:56;;;;;;;18.13;13.47;;;1.40;99.90;;;;;;4986344;28;20201;-86
2023/01/22 12:05:26;;;;;;;20.77;13.53;;;1.40;99.90;;;;;;5039719;28;20248;-83
2023/01/22 12:07:59;;;;;;;18.77;13.90;;;1.30;99.90;;;;;;5039874;28;20689;-83
2023/01/22 12:10:55;;;;;;;17.53;13.47;;;1.40;99.90;;;;;;5041328;28;20177;-83
2023/01/22 12:13:25;;;;;;;19.03;12.83;;;1.40;99.90;;;;;;5046832;28;20170;-83
2023/01/22 12:15:53;;;;;;;19.50;14.37;;;1.50;99.90;;;;;;5047636;28;20173;-83
2023/01/22 12:18:57;;;;;;;19.97;13.97;;;1.40;99.90;;;;;;5051568;28;20219;-83
2023/01/22 12:21:50;;;;;;;20.87;14.30;;;1.40;99.90;;;;;;5047617;28;20576;-82
2023/01/22 12:24:38;;;;;;;21.53;11.50;;;1.40;99.90;;;;;;5038612;28;20170;-83
2023/01/22 12:27:29;;;;;;;20.30;13.60;;;1.40;99.90;;;;;;5036492;28;20373;-82
2023/01/22 12:30:11;;;;;;;20.37;14.57;;;1.40;99.90;;;;;;5037929;28;20696;-83
2023/01/22 12:32:39;;;;;;;18.27;13.57;;;1.40;99.90;;;;;;5037562;28;20173;-82
2023/01/22 12:35:12;;;;;;;19.33;13.60;;;1.40;99.90;;;;;;5038767;28;20170;-84
2023/01/22 12:37:46;;;;;;;23.00;15.00;;;1.50;99.90;;;;;;5040964;28;20224;-84
2023/01/22 12:40:37;;;;;;;18.77;13.53;;;1.50;99.90;;;;;;5038940;28;20180;-84
2023/01/22 12:43:05;;;;;;;18.90;13.70;;;1.60;99.90;;;;;;5040010;28;20181;-84
2023/01/22 12:45:43;;;;;;;20.40;13.60;;;1.60;99.90;;;;;;5042637;28;20252;-84
2023/01/22 12:48:24;;;;;;;19.57;13.93;;;1.40;99.90;;;;;;5040491;28;20264;-84
2023/01/22 12:50:52;;;;;;;22.27;15.17;;;1.60;99.90;;;;;;5040800;28;20174;-82
2023/01/22 12:53:30;;;;;;;20.80;13.97;;;1.60;99.90;;;;;;5038812;28;20185;-83
2023/01/22 12:55:59;;;;;;;24.10;15.47;;;1.50;99.90;;;;;;5044699;28;20599;-88